Time;durP1;ratioP1;P1;durP2;ratioP2;P2;SDS_P1;SDS_P2;PMS_P1;PMS_P2;Temp;Humidity;BMP_temperature;BMP_pressure;BME280_temperature;BME280_humidity;BME280_pressure;Samples;Min_cycle;Max_cycle;Signal;HPM_P1;HPM_P2
2022/10/25 00:00:29;;;;;;;;;;;13.00;94.70;;;;;;2070929;28;19920;-90
2022/10/25 00:01:31;;;;;;;;;;;13.00;94.70;;;;;;2093950;28;19935;-91
2022/10/25 00:02:35;;;;;;;;;;;13.00;94.60;;;;;;2083189;28;19925;-90
2022/10/25 00:03:36;;;;;;;;;;;13.00;94.60;;;;;;2082306;28;19910;-91
2022/10/25 00:04:36;;;;;;;;;;;13.00;94.70;;;;;;2075032;28;19909;-90
2022/10/25 00:05:38;;;;;;;;;;;13.00;94.80;;;;;;2077199;28;20401;-90
2022/10/25 00:06:38;;;;;;;;;;;13.00;94.90;;;;;;2079746;28;19917;-90
2022/10/25 00:07:39;;;;;;;;;;;13.00;94.80;;;;;;2082680;28;19909;-89
2022/10/25 00:08:40;;;;;;;;;;;13.00;94.80;;;;;;2087680;28;19921;-87
2022/10/25 00:09:41;;;;;;;;;;;13.00;94.70;;;;;;2082211;28;19920;-86
2022/10/25 00:10:41;;;;;;;;;;;13.00;94.80;;;;;;2089266;28;20342;-89
2022/10/25 00:11:42;;;;;;;;;;;13.00;94.70;;;;;;2083223;28;19913;-89
2022/10/25 00:12:44;;;;;;;;;;;13.00;94.80;;;;;;2089459;28;19960;-89
2022/10/25 00:13:44;;;;;;;;;;;13.00;94.80;;;;;;2083419;28;19920;-91
2022/10/25 00:14:45;;;;;;;;;;;13.00;94.70;;;;;;2089879;28;19956;-91
2022/10/25 00:15:45;;;;;;;;;;;13.00;94.60;;;;;;2080130;28;20251;-89
2022/10/25 00:16:46;;;;;;;;;;;13.00;94.80;;;;;;2083261;28;19912;-90
2022/10/25 00:17:47;;;;;;;;;;;13.00;94.80;;;;;;2082764;28;20326;-88
2022/10/25 00:18:48;;;;;;;;;;;13.00;94.70;;;;;;2083218;28;19919;-88
2022/10/25 00:19:48;;;;;;;;;;;13.00;94.70;;;;;;2067601;28;19918;-89
2022/10/25 00:20:50;;;;;;;;;;;13.00;94.70;;;;;;2077608;28;19917;-88
2022/10/25 00:21:50;;;;;;;;;;;13.00;94.60;;;;;;2097510;28;20354;-90
2022/10/25 00:22:51;;;;;;;;;;;13.00;94.70;;;;;;2090645;28;19912;-92
2022/10/25 00:23:52;;;;;;;;;;;13.00;94.70;;;;;;2069706;28;19961;-86
2022/10/25 00:24:52;;;;;;;;;;;13.00;94.80;;;;;;2078664;28;19909;-88
2022/10/25 00:25:59;;;;;;;;;;;13.00;94.80;;;;;;2079525;28;19983;-89
2022/10/25 00:27:00;;;;;;;;;;;13.00;94.80;;;;;;2075443;28;19914;-90
2022/10/25 00:28:01;;;;;;;;;;;12.90;94.90;;;;;;2082316;28;19920;-90
2022/10/25 00:29:02;;;;;;;;;;;13.00;94.90;;;;;;2083342;28;20271;-87
2022/10/25 00:30:03;;;;;;;;;;;13.00;94.90;;;;;;2082898;28;19917;-88
2022/10/25 00:31:06;;;;;;;;;;;13.00;94.90;;;;;;2083012;28;19920;-89
2022/10/25 00:32:06;;;;;;;;;;;12.90;94.90;;;;;;2081196;28;19924;-89
2022/10/25 00:33:07;;;;;;;;;;;13.00;94.90;;;;;;2074703;28;20348;-91
2022/10/25 00:34:07;;;;;;;;;;;13.00;95.00;;;;;;2083172;28;20446;-92
2022/10/25 00:35:08;;;;;;;;;;;12.90;95.00;;;;;;2074961;28;20402;-89
2022/10/25 00:36:11;;;;;;;;;;;13.00;95.00;;;;;;2074636;28;20012;-90
2022/10/25 00:37:11;;;;;;;;;;;13.00;95.10;;;;;;2091230;28;20000;-90
2022/10/25 00:38:12;;;;;;;;;;;13.00;95.00;;;;;;2097384;28;19919;-89
2022/10/25 00:39:13;;;;;;;;;;;13.00;95.10;;;;;;2088568;28;19998;-89
2022/10/25 00:40:13;;;;;;;;;;;13.00;95.10;;;;;;2098647;28;19978;-90
2022/10/25 00:41:15;;;;;;;;;;;13.00;95.10;;;;;;2099558;28;19913;-91
2022/10/25 00:42:23;;;;;;;;;;;12.90;95.00;;;;;;2082372;28;20298;-87
2022/10/25 00:43:40;;;;;;;;;;;13.00;95.00;;;;;;2083041;28;19909;-87
2022/10/25 00:44:49;;;;;;;;;;;12.90;95.00;;;;;;2078821;28;19920;-91
2022/10/25 00:45:50;;;;;;;;;;;13.00;95.00;;;;;;2089486;28;19984;-89
2022/10/25 00:46:52;;;;;;;;;;;13.00;95.10;;;;;;2092468;28;19909;-90
2022/10/25 00:48:01;;;;;;;;;;;13.00;95.10;;;;;;2087472;28;19971;-87
2022/10/25 00:49:03;;;;;;;;;;;13.00;95.00;;;;;;2086158;28;19940;-88
2022/10/25 00:50:10;;;;;;;;;;;12.90;94.90;;;;;;2082110;28;20330;-89
2022/10/25 00:51:11;;;;;;;;;;;12.90;94.80;;;;;;2078640;28;19909;-91
2022/10/25 00:52:11;;;;;;;;;;;12.90;94.80;;;;;;2074662;28;19980;-89
2022/10/25 00:53:14;;;;;;;;;;;12.90;94.90;;;;;;2073942;28;19960;-87
2022/10/25 00:54:17;;;;;;;;;;;12.90;94.90;;;;;;2074573;28;20425;-91
2022/10/25 00:55:19;;;;;;;;;;;12.90;94.80;;;;;;2076347;28;20343;-90
2022/10/25 00:56:21;;;;;;;;;;;12.80;94.80;;;;;;2073434;28;19916;-88
2022/10/25 00:57:25;;;;;;;;;;;12.80;94.80;;;;;;2074256;28;19917;-86
2022/10/25 00:58:26;;;;;;;;;;;12.90;94.80;;;;;;2079460;28;19914;-90
2022/10/25 00:59:27;;;;;;;;;;;12.90;94.80;;;;;;2082473;28;19909;-92
2022/10/25 01:00:28;;;;;;;;;;;12.90;95.10;;;;;;2071634;28;19913;-89
2022/10/25 01:01:29;;;;;;;;;;;12.90;94.80;;;;;;2078007;28;19963;-88
2022/10/25 01:02:30;;;;;;;;;;;12.80;94.70;;;;;;2082994;28;19955;-87
2022/10/25 01:03:32;;;;;;;;;;;12.80;94.70;;;;;;2087453;28;19913;-92
2022/10/25 01:04:33;;;;;;;;;;;12.80;94.70;;;;;;2099223;28;19923;-91
2022/10/25 01:05:34;;;;;;;;;;;12.80;94.70;;;;;;2094692;28;20408;-88
2022/10/25 01:06:40;;;;;;;;;;;12.80;94.70;;;;;;2090889;28;19913;-86
2022/10/25 01:07:40;;;;;;;;;;;12.80;94.80;;;;;;2080667;28;19909;-88
2022/10/25 01:08:41;;;;;;;;;;;12.80;94.90;;;;;;2074431;28;20032;-90
2022/10/25 01:09:42;;;;;;;;;;;12.80;94.90;;;;;;2081132;28;19929;-92
2022/10/25 01:10:43;;;;;;;;;;;12.80;94.80;;;;;;2072146;28;19914;-90
2022/10/25 01:11:44;;;;;;;;;;;12.80;94.90;;;;;;2070665;28;19909;-89
2022/10/25 01:12:44;;;;;;;;;;;12.80;94.80;;;;;;2081745;28;20377;-89
2022/10/25 01:13:45;;;;;;;;;;;12.80;94.70;;;;;;2086515;28;19917;-90
2022/10/25 01:14:47;;;;;;;;;;;12.80;94.80;;;;;;2087407;28;19916;-89
2022/10/25 01:15:53;;;;;;;;;;;12.80;94.80;;;;;;2082437;28;20012;-87
2022/10/25 01:17:12;;;;;;;;;;;12.80;94.80;;;;;;2071809;28;19994;-88
2022/10/25 01:18:18;;;;;;;;;;;12.80;94.80;;;;;;2078723;28;20303;-89
2022/10/25 01:21:15;;;;;;;;;;;12.80;94.90;;;;;;2092641;28;20363;-88
2022/10/25 01:22:18;;;;;;;;;;;12.80;94.90;;;;;;2098629;28;19956;-90
2022/10/25 01:23:31;;;;;;;;;;;12.80;94.90;;;;;;2082014;28;19913;-87
2022/10/25 01:24:50;;;;;;;;;;;12.80;95.00;;;;;;2076638;28;19920;-88
2022/10/25 01:25:51;;;;;;;;;;;12.80;94.90;;;;;;2090710;28;20031;-89
2022/10/25 01:27:05;;;;;;;;;;;12.80;94.90;;;;;;2088465;28;20271;-87
2022/10/25 01:28:16;;;;;;;;;;;12.80;94.90;;;;;;2077113;28;20071;-89
2022/10/25 01:29:35;;;;;;;;;;;12.80;95.00;;;;;;2077104;28;19984;-86
2022/10/25 01:30:41;;;;;;;;;;;12.80;95.00;;;;;;2078393;28;19917;-88
2022/10/25 01:32:01;;;;;;;;;;;12.80;94.90;;;;;;2068281;28;19929;-88
2022/10/25 01:33:04;;;;;;;;;;;12.80;94.90;;;;;;2084343;28;19961;-90
2022/10/25 01:34:37;;;;;;;;;;;12.80;95.00;;;;;;2083555;28;19966;-88
2022/10/25 01:35:42;;;;;;;;;;;12.70;95.00;;;;;;2054082;28;19972;-87
2022/10/25 01:36:47;;;;;;;;;;;12.80;95.00;;;;;;2065138;28;19918;-88
2022/10/25 01:37:59;;;;;;;;;;;12.70;95.00;;;;;;2083651;28;19909;-89
2022/10/25 01:39:07;;;;;;;;;;;12.70;95.00;;;;;;2084064;28;19913;-91
2022/10/25 01:40:28;;;;;;;;;;;12.70;95.00;;;;;;2075694;28;19918;-88
2022/10/25 01:41:47;;;;;;;;;;;12.70;95.10;;;;;;2081721;28;20000;-89
2022/10/25 01:42:47;;;;;;;;;;;12.80;95.10;;;;;;2090674;28;19913;-92
2022/10/25 01:44:04;;;;;;;;;;;12.80;95.20;;;;;;2082563;28;20003;-87
2022/10/25 01:45:12;;;;;;;;;;;12.80;95.10;;;;;;2082829;28;20389;-90
2022/10/25 01:46:12;;;;;;;;;;;12.80;95.10;;;;;;2073494;28;19914;-91
2022/10/25 01:47:20;;;;;;;;;;;12.80;95.20;;;;;;2074612;28;19910;-92
2022/10/25 01:48:41;;;;;;;;;;;12.80;95.10;;;;;;2083639;28;19952;-87
2022/10/25 01:53:17;;;;;;;;;;;12.80;95.20;;;;;;2093328;28;20010;-91
2022/10/25 01:54:23;;;;;;;;;;;12.80;95.20;;;;;;2084285;28;19921;-87
2022/10/25 01:55:27;;;;;;;;;;;12.80;95.20;;;;;;2085230;28;20011;-91
2022/10/25 01:56:30;;;;;;;;;;;12.80;95.20;;;;;;2075090;28;20322;-88
2022/10/25 01:57:37;;;;;;;;;;;12.70;95.20;;;;;;2084614;28;19919;-88
2022/10/25 01:58:47;;;;;;;;;;;12.70;95.20;;;;;;2076909;28;19957;-87
2022/10/25 02:04:13;;;;;;;;;;;12.70;95.10;;;;;;2093773;28;19913;-89
2022/10/25 02:05:16;;;;;;;;;;;12.70;95.10;;;;;;2092428;28;19913;-88
2022/10/25 02:06:26;;;;;;;;;;;12.70;95.10;;;;;;2074053;28;19909;-89
2022/10/25 02:07:29;;;;;;;;;;;12.70;95.20;;;;;;2073010;28;19996;-86
2022/10/25 02:08:41;;;;;;;;;;;12.70;95.20;;;;;;2084594;28;19909;-87
2022/10/25 02:09:41;;;;;;;;;;;12.70;95.20;;;;;;2078265;28;20027;-87
2022/10/25 02:11:05;;;;;;;;;;;12.70;95.20;;;;;;2069628;28;19913;-87
2022/10/25 02:12:07;;;;;;;;;;;12.70;95.20;;;;;;2079157;28;19921;-87
2022/10/25 02:13:26;;;;;;;;;;;12.70;95.30;;;;;;2076890;28;19956;-87
2022/10/25 02:14:33;;;;;;;;;;;12.70;95.30;;;;;;2087737;28;20012;-88
2022/10/25 02:15:38;;;;;;;;;;;12.80;95.30;;;;;;2081852;28;19909;-87
2022/10/25 02:16:41;;;;;;;;;;;12.70;95.20;;;;;;2076380;28;19913;-89
2022/10/25 02:17:49;;;;;;;;;;;12.70;95.20;;;;;;2076259;28;19917;-87
2022/10/25 02:18:53;;;;;;;;;;;12.70;95.30;;;;;;2069789;28;20348;-89
2022/10/25 02:19:57;;;;;;;;;;;12.70;95.30;;;;;;2068265;28;19920;-89
2022/10/25 02:20:58;;;;;;;;;;;12.70;95.30;;;;;;2076338;28;20356;-91
2022/10/25 02:21:59;;;;;;;;;;;12.70;95.20;;;;;;2075837;28;20000;-91
2022/10/25 02:23:02;;;;;;;;;;;12.70;95.20;;;;;;2069219;28;19914;-91
2022/10/25 02:24:25;;;;;;;;;;;12.70;95.20;;;;;;2060390;28;20393;-90
2022/10/25 02:25:26;;;;;;;;;;;12.70;95.20;;;;;;2081590;28;19917;-91
2022/10/25 02:26:27;;;;;;;;;;;12.70;95.30;;;;;;2083486;28;19964;-87
2022/10/25 02:27:29;;;;;;;;;;;12.70;95.20;;;;;;2075076;28;20011;-89
2022/10/25 02:28:31;;;;;;;;;;;12.70;95.30;;;;;;2070011;28;19920;-89
2022/10/25 02:29:33;;;;;;;;;;;12.70;95.40;;;;;;2067907;28;19910;-87
2022/10/25 02:30:34;;;;;;;;;;;12.70;95.40;;;;;;2084161;28;19924;-86
2022/10/25 02:31:35;;;;;;;;;;;12.70;95.30;;;;;;2079991;28;19925;-87
2022/10/25 02:32:36;;;;;;;;;;;12.70;95.30;;;;;;2067233;28;20069;-91
2022/10/25 02:33:37;;;;;;;;;;;12.70;95.30;;;;;;2073127;28;20348;-88
2022/10/25 02:34:38;;;;;;;;;;;12.70;95.30;;;;;;2075837;28;19925;-89
2022/10/25 02:35:39;;;;;;;;;;;12.70;95.20;;;;;;2074394;28;19949;-87
2022/10/25 02:36:39;;;;;;;;;;;12.70;95.20;;;;;;2075668;28;19929;-91
2022/10/25 02:37:40;;;;;;;;;;;12.70;95.20;;;;;;2075669;28;19914;-89
2022/10/25 02:38:41;;;;;;;;;;;12.70;95.20;;;;;;2075869;28;19973;-90
2022/10/25 02:39:43;;;;;;;;;;;12.70;95.30;;;;;;2083244;28;20294;-89
2022/10/25 02:40:43;;;;;;;;;;;12.70;95.30;;;;;;2084225;28;19913;-88
2022/10/25 02:41:44;;;;;;;;;;;12.70;95.30;;;;;;2083861;28;20012;-87
2022/10/25 02:42:44;;;;;;;;;;;12.70;95.30;;;;;;2075977;28;20351;-88
2022/10/25 02:43:45;;;;;;;;;;;12.70;95.40;;;;;;2075984;28;19914;-89
2022/10/25 02:44:46;;;;;;;;;;;12.70;95.40;;;;;;2059711;28;19960;-88
2022/10/25 02:45:46;;;;;;;;;;;12.70;95.30;;;;;;2076790;28;19909;-89
2022/10/25 02:46:47;;;;;;;;;;;12.70;95.40;;;;;;2088897;28;19913;-92
2022/10/25 02:47:47;;;;;;;;;;;12.70;95.30;;;;;;2075750;28;19910;-89
2022/10/25 02:48:48;;;;;;;;;;;12.70;95.30;;;;;;2081254;28;19917;-91
2022/10/25 02:49:49;;;;;;;;;;;12.70;95.30;;;;;;2075568;28;19924;-90
2022/10/25 02:50:50;;;;;;;;;;;12.70;95.30;;;;;;2082452;28;20053;-91
2022/10/25 02:51:50;;;;;;;;;;;12.70;95.30;;;;;;2083619;28;19909;-89
2022/10/25 02:52:51;;;;;;;;;;;12.70;95.40;;;;;;2083526;28;19973;-92
2022/10/25 02:53:51;;;;;;;;;;;12.70;95.30;;;;;;2067528;28;19910;-92
2022/10/25 02:54:52;;;;;;;;;;;12.70;95.30;;;;;;2060783;28;19954;-86
2022/10/25 02:56:03;;;;;;;;;;;12.70;95.30;;;;;;2083975;28;19913;-89
2022/10/25 02:57:04;;;;;;;;;;;12.70;95.40;;;;;;2083743;28;19920;-89
2022/10/25 02:58:04;;;;;;;;;;;12.70;95.40;;;;;;2075580;28;20369;-90
2022/10/25 02:59:05;;;;;;;;;;;12.70;95.40;;;;;;2072323;28;20024;-89
2022/10/25 03:00:06;;;;;;;;;;;12.70;95.40;;;;;;2084020;28;19909;-91
2022/10/25 03:01:07;;;;;;;;;;;12.70;95.40;;;;;;2075567;28;19921;-90
2022/10/25 03:02:08;;;;;;;;;;;12.70;95.40;;;;;;2067550;28;19910;-90
2022/10/25 03:03:08;;;;;;;;;;;12.60;95.50;;;;;;2059228;28;20387;-91
2022/10/25 03:04:09;;;;;;;;;;;12.70;95.50;;;;;;2072343;28;20000;-92
2022/10/25 03:05:09;;;;;;;;;;;12.60;95.30;;;;;;2075688;28;19910;-87
2022/10/25 03:06:11;;;;;;;;;;;12.70;95.30;;;;;;2066485;28;20336;-89
2022/10/25 03:07:11;;;;;;;;;;;12.60;95.30;;;;;;2070052;28;19981;-91
2022/10/25 03:08:12;;;;;;;;;;;12.70;95.40;;;;;;2075888;28;19909;-91
2022/10/25 03:09:12;;;;;;;;;;;12.60;95.30;;;;;;2076343;28;19920;-89
2022/10/25 03:10:13;;;;;;;;;;;12.60;95.40;;;;;;2074290;28;20013;-88
2022/10/25 03:11:15;;;;;;;;;;;12.60;95.40;;;;;;2083122;28;20274;-85
2022/10/25 03:12:16;;;;;;;;;;;12.60;95.40;;;;;;2091716;28;19909;-89
2022/10/25 03:13:16;;;;;;;;;;;12.60;95.40;;;;;;2092092;28;19963;-91
2022/10/25 03:14:17;;;;;;;;;;;12.60;95.40;;;;;;2086706;28;20344;-89
2022/10/25 03:15:17;;;;;;;;;;;12.60;95.40;;;;;;2083797;28;20367;-89
2022/10/25 03:16:18;;;;;;;;;;;12.60;95.40;;;;;;2082836;28;19915;-88
2022/10/25 03:17:19;;;;;;;;;;;12.60;95.40;;;;;;2077157;28;19921;-87
2022/10/25 03:18:21;;;;;;;;;;;12.60;95.40;;;;;;2075428;28;19910;-89
2022/10/25 03:19:21;;;;;;;;;;;12.60;95.40;;;;;;2074965;28;19921;-91
2022/10/25 03:20:22;;;;;;;;;;;12.60;95.50;;;;;;2075477;28;19949;-87
2022/10/25 03:21:23;;;;;;;;;;;12.60;95.50;;;;;;2083472;28;19954;-91
2022/10/25 03:22:23;;;;;;;;;;;12.60;95.50;;;;;;2090530;28;20366;-90
2022/10/25 03:23:25;;;;;;;;;;;12.60;95.50;;;;;;2084539;28;20418;-90
2022/10/25 03:24:25;;;;;;;;;;;12.60;95.50;;;;;;2075595;28;19913;-88
2022/10/25 03:25:26;;;;;;;;;;;12.60;95.40;;;;;;2083465;28;19935;-89
2022/10/25 03:26:27;;;;;;;;;;;12.60;95.50;;;;;;2081698;28;19913;-90
2022/10/25 03:27:27;;;;;;;;;;;12.60;95.60;;;;;;2083701;28;20382;-87
2022/10/25 03:28:28;;;;;;;;;;;12.60;95.60;;;;;;2083649;28;20008;-90
2022/10/25 03:29:29;;;;;;;;;;;12.60;95.50;;;;;;2091941;28;20385;-87
2022/10/25 03:30:30;;;;;;;;;;;12.60;95.50;;;;;;2091168;28;19916;-88
2022/10/25 03:31:30;;;;;;;;;;;12.60;95.50;;;;;;2100350;28;19943;-88
2022/10/25 03:32:31;;;;;;;;;;;12.60;95.50;;;;;;2091304;28;19988;-90
2022/10/25 03:33:32;;;;;;;;;;;12.60;95.50;;;;;;2075381;28;19913;-89
2022/10/25 03:34:32;;;;;;;;;;;12.60;95.50;;;;;;2091804;28;20365;-87
2022/10/25 03:35:33;;;;;;;;;;;12.60;95.50;;;;;;2076653;28;19969;-87
2022/10/25 03:36:34;;;;;;;;;;;12.60;95.50;;;;;;2081654;28;19984;-90
2022/10/25 03:37:34;;;;;;;;;;;12.60;95.60;;;;;;2086480;28;20326;-88
2022/10/25 03:38:35;;;;;;;;;;;12.60;95.60;;;;;;2083297;28;19917;-88
2022/10/25 03:39:35;;;;;;;;;;;12.60;95.60;;;;;;2074812;28;19914;-92
2022/10/25 03:40:36;;;;;;;;;;;12.60;95.60;;;;;;2082140;28;19947;-88
2022/10/25 03:41:37;;;;;;;;;;;12.60;95.60;;;;;;2086326;28;19947;-89
2022/10/25 03:42:37;;;;;;;;;;;12.60;95.60;;;;;;2073991;28;20328;-88
2022/10/25 03:43:38;;;;;;;;;;;12.60;95.60;;;;;;2087341;28;19913;-87
2022/10/25 03:44:39;;;;;;;;;;;12.60;95.60;;;;;;2089719;28;19916;-91
2022/10/25 03:45:39;;;;;;;;;;;12.60;95.60;;;;;;2082312;28;20320;-88
2022/10/25 03:46:40;;;;;;;;;;;12.60;95.60;;;;;;2083525;28;19956;-91
2022/10/25 03:47:40;;;;;;;;;;;12.60;95.50;;;;;;2083414;28;19913;-90
2022/10/25 03:48:41;;;;;;;;;;;12.60;95.70;;;;;;2075652;28;19963;-88
2022/10/25 03:49:42;;;;;;;;;;;12.60;95.80;;;;;;2085577;28;19920;-88
2022/10/25 03:50:42;;;;;;;;;;;12.60;95.70;;;;;;2083193;28;19992;-86
2022/10/25 03:51:43;;;;;;;;;;;12.60;95.80;;;;;;2081243;28;19913;-90
2022/10/25 03:52:43;;;;;;;;;;;12.60;95.80;;;;;;2083016;28;20233;-91
2022/10/25 03:53:45;;;;;;;;;;;12.60;95.80;;;;;;2085264;28;19944;-88
2022/10/25 03:54:45;;;;;;;;;;;12.60;95.70;;;;;;2083495;28;19909;-91
2022/10/25 03:55:47;;;;;;;;;;;12.60;95.70;;;;;;2083439;28;20290;-88
2022/10/25 03:56:47;;;;;;;;;;;12.60;95.70;;;;;;2091662;28;19932;-90
2022/10/25 03:57:48;;;;;;;;;;;12.60;95.80;;;;;;2083508;28;20330;-89
2022/10/25 03:58:48;;;;;;;;;;;12.60;95.70;;;;;;2083433;28;19967;-89
2022/10/25 03:59:49;;;;;;;;;;;12.50;95.80;;;;;;2082684;28;19920;-88
2022/10/25 04:00:50;;;;;;;;;;;12.60;95.70;;;;;;2087209;28;19909;-90
2022/10/25 04:01:50;;;;;;;;;;;12.50;95.60;;;;;;2083738;28;19924;-86
2022/10/25 04:02:54;;;;;;;;;;;12.50;95.70;;;;;;2083426;28;19913;-91
2022/10/25 04:03:55;;;;;;;;;;;12.50;95.70;;;;;;2075505;28;20348;-87
2022/10/25 04:04:56;;;;;;;;;;;12.50;95.80;;;;;;2075220;28;19909;-89
2022/10/25 04:05:56;;;;;;;;;;;12.50;95.80;;;;;;2086551;28;19917;-87
2022/10/25 04:06:57;;;;;;;;;;;12.50;95.70;;;;;;2083335;28;19909;-90
2022/10/25 04:07:58;;;;;;;;;;;12.50;95.60;;;;;;2091194;28;20422;-90
2022/10/25 04:08:58;;;;;;;;;;;12.50;95.60;;;;;;2083288;28;19917;-89
2022/10/25 04:09:59;;;;;;;;;;;12.50;95.60;;;;;;2083186;28;20026;-87
2022/10/25 04:10:59;;;;;;;;;;;12.50;95.70;;;;;;2092169;28;20007;-89
2022/10/25 04:12:00;;;;;;;;;;;12.50;95.70;;;;;;2091433;28;20271;-88
2022/10/25 04:13:01;;;;;;;;;;;12.50;95.70;;;;;;2082760;28;20419;-89
2022/10/25 04:14:01;;;;;;;;;;;12.50;95.70;;;;;;2080295;28;20263;-88
2022/10/25 04:15:02;;;;;;;;;;;12.50;95.70;;;;;;2084620;28;19910;-91
2022/10/25 04:16:06;;;;;;;;;;;12.50;95.70;;;;;;2088384;28;20358;-87
2022/10/25 04:17:07;;;;;;;;;;;12.50;95.80;;;;;;2083249;28;19988;-89
2022/10/25 04:18:08;;;;;;;;;;;12.50;95.80;;;;;;2083055;28;19909;-88
2022/10/25 04:19:08;;;;;;;;;;;12.50;95.80;;;;;;2090665;28;20090;-87
2022/10/25 04:20:09;;;;;;;;;;;12.50;95.80;;;;;;2091426;28;19923;-88
2022/10/25 04:21:10;;;;;;;;;;;12.50;95.80;;;;;;2074993;28;20007;-90
2022/10/25 04:22:11;;;;;;;;;;;12.50;95.70;;;;;;2082624;28;19920;-89
2022/10/25 04:23:11;;;;;;;;;;;12.40;95.60;;;;;;2091600;28;19959;-86
2022/10/25 04:24:12;;;;;;;;;;;12.50;95.70;;;;;;2082985;28;19967;-87
2022/10/25 04:25:13;;;;;;;;;;;12.50;95.70;;;;;;2075581;28;19952;-86
2022/10/25 04:26:16;;;;;;;;;;;12.40;95.70;;;;;;2082535;28;20255;-91
2022/10/25 04:27:17;;;;;;;;;;;12.50;95.80;;;;;;2083195;28;19920;-88
2022/10/25 04:28:17;;;;;;;;;;;12.50;95.80;;;;;;2083052;28;19909;-87
2022/10/25 04:29:18;;;;;;;;;;;12.40;95.70;;;;;;2083007;28;19913;-90
2022/10/25 04:30:19;;;;;;;;;;;12.50;95.70;;;;;;2091352;28;19924;-89
2022/10/25 04:31:20;;;;;;;;;;;12.40;95.60;;;;;;2074808;28;19910;-89
2022/10/25 04:32:21;;;;;;;;;;;12.40;95.50;;;;;;2082519;28;19917;-88
2022/10/25 04:33:21;;;;;;;;;;;12.40;95.50;;;;;;2082998;28;19959;-88
2022/10/25 04:34:22;;;;;;;;;;;12.40;95.60;;;;;;2076894;28;20342;-87
2022/10/25 04:35:22;;;;;;;;;;;12.40;95.40;;;;;;2088854;28;20007;-89
2022/10/25 04:36:23;;;;;;;;;;;12.40;95.50;;;;;;2087831;28;19917;-88
2022/10/25 04:37:24;;;;;;;;;;;12.40;95.50;;;;;;2095735;28;19955;-88
2022/10/25 04:38:25;;;;;;;;;;;12.40;95.50;;;;;;2099480;28;20309;-89
2022/10/25 04:39:25;;;;;;;;;;;12.40;95.50;;;;;;2082056;28;19909;-87
2022/10/25 04:40:26;;;;;;;;;;;12.40;95.50;;;;;;2079591;28;19914;-90
2022/10/25 04:41:26;;;;;;;;;;;12.30;95.40;;;;;;2074786;28;19992;-86
2022/10/25 04:42:27;;;;;;;;;;;12.30;95.40;;;;;;2091144;28;19909;-87
2022/10/25 04:43:28;;;;;;;;;;;12.40;95.60;;;;;;2092755;28;20287;-87
2022/10/25 04:44:28;;;;;;;;;;;12.30;95.40;;;;;;2084274;28;19916;-91
2022/10/25 04:45:29;;;;;;;;;;;12.30;95.30;;;;;;2082809;28;19909;-90
2022/10/25 04:46:29;;;;;;;;;;;12.40;95.40;;;;;;2078349;28;19928;-86
2022/10/25 04:47:31;;;;;;;;;;;12.30;95.40;;;;;;2075067;28;19922;-86
2022/10/25 04:48:31;;;;;;;;;;;12.30;95.40;;;;;;2073459;28;19910;-89
2022/10/25 04:49:32;;;;;;;;;;;12.30;95.30;;;;;;2075744;28;19920;-90
2022/10/25 04:50:33;;;;;;;;;;;12.30;95.50;;;;;;2079906;28;19917;-89
2022/10/25 04:51:33;;;;;;;;;;;12.30;95.40;;;;;;2083075;28;19909;-90
2022/10/25 04:52:34;;;;;;;;;;;12.30;95.40;;;;;;2082164;28;19913;-89
2022/10/25 04:53:35;;;;;;;;;;;12.30;95.40;;;;;;2083077;28;20247;-89
2022/10/25 04:54:35;;;;;;;;;;;12.30;95.40;;;;;;2083149;28;19917;-86
2022/10/25 04:55:36;;;;;;;;;;;12.30;95.40;;;;;;2079358;28;20630;-89
2022/10/25 04:56:36;;;;;;;;;;;12.30;95.30;;;;;;2074752;28;19924;-87
2022/10/25 04:57:37;;;;;;;;;;;12.30;95.30;;;;;;2090645;28;20399;-90
2022/10/25 04:58:38;;;;;;;;;;;12.30;95.10;;;;;;2084676;28;19967;-89
2022/10/25 04:59:38;;;;;;;;;;;12.20;95.50;;;;;;2082290;28;20419;-89
2022/10/25 05:00:39;;;;;;;;;;;12.20;95.40;;;;;;2079241;28;20314;-88
2022/10/25 05:01:39;;;;;;;;;;;12.20;95.30;;;;;;2083103;28;19913;-86
2022/10/25 05:02:40;;;;;;;;;;;12.20;95.30;;;;;;2091418;28;19923;-85
2022/10/25 05:03:41;;;;;;;;;;;12.20;95.20;;;;;;2091344;28;20327;-89
2022/10/25 05:04:41;;;;;;;;;;;12.20;95.30;;;;;;2083030;28;19952;-87
2022/10/25 05:05:42;;;;;;;;;;;12.20;95.20;;;;;;2090667;28;19923;-87
2022/10/25 05:06:43;;;;;;;;;;;12.20;95.30;;;;;;2091657;28;19908;-91
2022/10/25 05:07:43;;;;;;;;;;;12.20;95.30;;;;;;2085437;28;20094;-88
2022/10/25 05:08:46;;;;;;;;;;;12.20;95.20;;;;;;2082813;28;20355;-87
2022/10/25 05:09:46;;;;;;;;;;;12.20;95.30;;;;;;2082930;28;20040;-91
2022/10/25 05:10:53;;;;;;;;;;;12.20;95.30;;;;;;2083025;28;19921;-89
2022/10/25 05:11:54;;;;;;;;;;;12.20;95.40;;;;;;2086779;28;20011;-87
2022/10/25 05:12:54;;;;;;;;;;;12.20;95.30;;;;;;2089352;28;19967;-88
2022/10/25 05:13:55;;;;;;;;;;;12.20;95.30;;;;;;2076691;28;19914;-88
2022/10/25 05:14:56;;;;;;;;;;;12.20;95.30;;;;;;2074707;28;19919;-90
2022/10/25 05:15:57;;;;;;;;;;;12.20;95.30;;;;;;2082876;28;19912;-89
2022/10/25 05:16:57;;;;;;;;;;;12.20;95.50;;;;;;2091028;28;19999;-89
2022/10/25 05:17:59;;;;;;;;;;;12.20;95.40;;;;;;2084047;28;20355;-88
2022/10/25 05:19:00;;;;;;;;;;;12.20;95.40;;;;;;2080685;28;20043;-89
2022/10/25 05:20:00;;;;;;;;;;;12.20;95.30;;;;;;2075452;28;19921;-86
2022/10/25 05:21:05;;;;;;;;;;;12.20;95.30;;;;;;2078781;28;19909;-86
2022/10/25 05:22:05;;;;;;;;;;;12.20;95.30;;;;;;2075548;28;19920;-87
2022/10/25 05:23:06;;;;;;;;;;;12.20;95.30;;;;;;2074722;28;20038;-88
2022/10/25 05:24:07;;;;;;;;;;;12.20;95.30;;;;;;2076542;28;19913;-88
2022/10/25 05:25:08;;;;;;;;;;;12.20;95.30;;;;;;2074942;28;19936;-89
2022/10/25 05:26:10;;;;;;;;;;;12.20;95.20;;;;;;2079375;28;19952;-89
2022/10/25 05:27:10;;;;;;;;;;;12.20;95.30;;;;;;2084738;28;20347;-89
2022/10/25 05:28:11;;;;;;;;;;;12.20;95.30;;;;;;2084584;28;19945;-90
2022/10/25 05:29:11;;;;;;;;;;;12.10;95.30;;;;;;2091410;28;19912;-90
2022/10/25 05:30:12;;;;;;;;;;;12.20;95.30;;;;;;2086696;28;19917;-89
2022/10/25 05:31:23;;;;;;;;;;;12.20;95.30;;;;;;2084676;28;19913;-89
2022/10/25 05:32:23;;;;;;;;;;;12.20;95.40;;;;;;2092255;28;19992;-89
2022/10/25 05:33:24;;;;;;;;;;;12.20;95.30;;;;;;2092583;28;20346;-88
2022/10/25 05:34:26;;;;;;;;;;;12.20;95.50;;;;;;2090458;28;19971;-88
2022/10/25 05:35:26;;;;;;;;;;;12.20;95.40;;;;;;2084851;28;19925;-88
2022/10/25 05:36:28;;;;;;;;;;;12.20;95.50;;;;;;2092748;28;19917;-88
2022/10/25 05:37:28;;;;;;;;;;;12.20;95.40;;;;;;2084687;28;20381;-89
2022/10/25 05:38:29;;;;;;;;;;;12.20;95.40;;;;;;2076103;28;19913;-89
2022/10/25 05:39:30;;;;;;;;;;;12.20;95.40;;;;;;2071313;28;19922;-90
2022/10/25 05:40:30;;;;;;;;;;;12.20;95.30;;;;;;2068389;28;20364;-86
2022/10/25 05:41:31;;;;;;;;;;;12.20;95.40;;;;;;2081316;28;19909;-90
2022/10/25 05:42:32;;;;;;;;;;;12.10;95.30;;;;;;2084794;28;19940;-91
2022/10/25 05:43:32;;;;;;;;;;;12.20;95.20;;;;;;2084401;28;19948;-90
2022/10/25 05:44:33;;;;;;;;;;;12.10;95.60;;;;;;2084532;28;19921;-90
2022/10/25 05:45:33;;;;;;;;;;;12.10;95.20;;;;;;2092709;28;19913;-90
2022/10/25 05:46:34;;;;;;;;;;;12.10;95.40;;;;;;2092341;28;19909;-89
2022/10/25 05:47:35;;;;;;;;;;;12.10;95.40;;;;;;2076475;28;20322;-87
2022/10/25 05:48:36;;;;;;;;;;;12.10;95.40;;;;;;2091529;28;19999;-88
2022/10/25 05:49:39;;;;;;;;;;;12.10;95.30;;;;;;2077673;28;19910;-89
2022/10/25 05:50:39;;;;;;;;;;;12.10;95.30;;;;;;2092785;28;19920;-87
2022/10/25 05:51:40;;;;;;;;;;;12.10;95.30;;;;;;2084404;28;19943;-87
2022/10/25 05:52:42;;;;;;;;;;;12.10;95.30;;;;;;2083785;28;19982;-86
2022/10/25 05:53:46;;;;;;;;;;;12.10;95.40;;;;;;2081776;28;19923;-90
2022/10/25 05:54:47;;;;;;;;;;;12.10;95.40;;;;;;2069244;28;19909;-90
2022/10/25 05:55:47;;;;;;;;;;;12.10;95.30;;;;;;2082462;28;19967;-90
2022/10/25 05:56:48;;;;;;;;;;;12.10;95.40;;;;;;2076220;28;19921;-89
2022/10/25 05:57:49;;;;;;;;;;;12.10;95.40;;;;;;2075947;28;19928;-89
2022/10/25 05:58:50;;;;;;;;;;;12.10;95.40;;;;;;2076586;28;19936;-90
2022/10/25 05:59:50;;;;;;;;;;;12.00;95.40;;;;;;2075232;28;20364;-88
2022/10/25 06:00:51;;;;;;;;;;;12.10;95.50;;;;;;2085500;28;20389;-93
2022/10/25 06:01:52;;;;;;;;;;;12.00;95.50;;;;;;2084533;28;19920;-90
2022/10/25 06:02:52;;;;;;;;;;;12.10;95.50;;;;;;2096349;28;19912;-89
2022/10/25 06:03:53;;;;;;;;;;;12.10;95.50;;;;;;2092544;28;20374;-88
2022/10/25 06:04:54;;;;;;;;;;;12.10;95.60;;;;;;2087427;28;20256;-89
2022/10/25 06:05:58;;;;;;;;;;;12.00;95.50;;;;;;2068604;28;19928;-91
2022/10/25 06:06:59;;;;;;;;;;;12.10;95.50;;;;;;2074116;28;19991;-89
2022/10/25 06:08:00;;;;;;;;;;;12.00;95.40;;;;;;2082647;28;20324;-87
2022/10/25 06:09:00;;;;;;;;;;;12.00;95.40;;;;;;2088493;28;19923;-87
2022/10/25 06:10:01;;;;;;;;;;;12.00;95.70;;;;;;2081992;28;20256;-88
2022/10/25 06:11:03;;;;;;;;;;;12.00;95.40;;;;;;2079520;28;19923;-87
2022/10/25 06:12:05;;;;;;;;;;;12.00;95.50;;;;;;2100769;28;19913;-90